sensor_id;sensor_type;location;lat;lon;timestamp;temperature;humidity
20231;DHT22;10274;49.022;9.338;2023-07-08T00:00:15;23.80;1.00
20231;DHT22;10274;49.022;9.338;2023-07-08T00:02:42;23.80;1.00
20231;DHT22;10274;49.022;9.338;2023-07-08T00:05:12;23.80;1.00
20231;DHT22;10274;49.022;9.338;2023-07-08T00:07:40;23.90;1.00
20231;DHT22;10274;49.022;9.338;2023-07-08T00:10:13;23.90;1.00
20231;DHT22;10274;49.022;9.338;2023-07-08T00:12:40;23.80;1.00
20231;DHT22;10274;49.022;9.338;2023-07-08T00:15:07;23.90;1.00
20231;DHT22;10274;49.022;9.338;2023-07-08T00:17:34;23.80;1.00
20231;DHT22;10274;49.022;9.338;2023-07-08T00:20:01;23.80;1.00
20231;DHT22;10274;49.022;9.338;2023-07-08T00:22:29;23.90;1.00
20231;DHT22;10274;49.022;9.338;2023-07-08T00:24:56;23.90;1.00
20231;DHT22;10274;49.022;9.338;2023-07-08T00:27:22;23.70;1.00
20231;DHT22;10274;49.022;9.338;2023-07-08T00:29:49;23.60;1.00
20231;DHT22;10274;49.022;9.338;2023-07-08T00:32:16;23.40;1.00
20231;DHT22;10274;49.022;9.338;2023-07-08T00:34:42;23.40;1.00
20231;DHT22;10274;49.022;9.338;2023-07-08T00:37:11;23.60;1.00
20231;DHT22;10274;49.022;9.338;2023-07-08T00:39:40;23.40;1.00
20231;DHT22;10274;49.022;9.338;2023-07-08T00:42:15;23.10;1.00
20231;DHT22;10274;49.022;9.338;2023-07-08T00:44:43;23.00;1.00
20231;DHT22;10274;49.022;9.338;2023-07-08T00:47:12;22.80;1.00
20231;DHT22;10274;49.022;9.338;2023-07-08T00:49:46;22.80;1.00
20231;DHT22;10274;49.022;9.338;2023-07-08T00:52:20;22.80;1.00
20231;DHT22;10274;49.022;9.338;2023-07-08T00:54:50;23.10;1.00
20231;DHT22;10274;49.022;9.338;2023-07-08T00:57:18;23.00;1.00
20231;DHT22;10274;49.022;9.338;2023-07-08T00:59:48;22.80;1.00
20231;DHT22;10274;49.022;9.338;2023-07-08T01:02:19;22.80;1.00
20231;DHT22;10274;49.022;9.338;2023-07-08T01:04:51;22.70;1.00
20231;DHT22;10274;49.022;9.338;2023-07-08T01:07:19;22.70;1.00
20231;DHT22;10274;49.022;9.338;2023-07-08T01:09:57;22.50;1.00
20231;DHT22;10274;49.022;9.338;2023-07-08T01:12:26;22.10;1.00
20231;DHT22;10274;49.022;9.338;2023-07-08T01:14:54;21.80;1.00
20231;DHT22;10274;49.022;9.338;2023-07-08T01:17:22;21.50;1.00
20231;DHT22;10274;49.022;9.338;2023-07-08T01:19:50;21.40;1.00
20231;DHT22;10274;49.022;9.338;2023-07-08T01:22:22;21.20;3.70
20231;DHT22;10274;49.022;9.338;2023-07-08T01:24:48;21.00;15.30
20231;DHT22;10274;49.022;9.338;2023-07-08T01:27:18;20.90;22.70
20231;DHT22;10274;49.022;9.338;2023-07-08T01:29:46;20.60;35.90
20231;DHT22;10274;49.022;9.338;2023-07-08T01:32:13;20.30;60.10
20231;DHT22;10274;49.022;9.338;2023-07-08T01:34:44;19.90;90.90
20231;DHT22;10274;49.022;9.338;2023-07-08T01:37:31;19.80;99.90
20231;DHT22;10274;49.022;9.338;2023-07-08T01:40:23;19.30;99.90
20231;DHT22;10274;49.022;9.338;2023-07-08T01:42:50;19.20;99.90
20231;DHT22;10274;49.022;9.338;2023-07-08T01:45:20;19.20;99.90
20231;DHT22;10274;49.022;9.338;2023-07-08T01:47:51;19.30;99.90
20231;DHT22;10274;49.022;9.338;2023-07-08T01:50:18;19.20;99.90
20231;DHT22;10274;49.022;9.338;2023-07-08T01:52:48;19.00;99.90
20231;DHT22;10274;49.022;9.338;2023-07-08T01:55:21;18.80;99.90
20231;DHT22;10274;49.022;9.338;2023-07-08T01:57:51;18.70;99.90
20231;DHT22;10274;49.022;9.338;2023-07-08T02:00:18;18.40;99.90
20231;DHT22;10274;49.022;9.338;2023-07-08T02:02:45;18.10;99.90
20231;DHT22;10274;49.022;9.338;2023-07-08T02:05:11;18.00;1.00
20231;DHT22;10274;49.022;9.338;2023-07-08T02:07:38;17.90;1.00
20231;DHT22;10274;49.022;9.338;2023-07-08T02:10:08;18.00;1.00
20231;DHT22;10274;49.022;9.338;2023-07-08T02:12:35;17.50;1.00
20231;DHT22;10274;49.022;9.338;2023-07-08T02:15:02;17.50;1.00
20231;DHT22;10274;49.022;9.338;2023-07-08T02:17:29;17.40;1.00
20231;DHT22;10274;49.022;9.338;2023-07-08T02:19:56;17.40;1.00
20231;DHT22;10274;49.022;9.338;2023-07-08T02:22:23;17.30;1.00
20231;DHT22;10274;49.022;9.338;2023-07-08T02:27:18;17.00;99.90
20231;DHT22;10274;49.022;9.338;2023-07-08T02:29:45;16.90;99.90
20231;DHT22;10274;49.022;9.338;2023-07-08T02:32:11;16.70;26.30
20231;DHT22;10274;49.022;9.338;2023-07-08T02:34:38;16.80;99.90
20231;DHT22;10274;49.022;9.338;2023-07-08T02:37:05;16.70;99.90
20231;DHT22;10274;49.022;9.338;2023-07-08T02:39:32;16.80;99.90
20231;DHT22;10274;49.022;9.338;2023-07-08T02:41:59;16.90;92.60
20231;DHT22;10274;49.022;9.338;2023-07-08T02:44:27;16.90;84.00
20231;DHT22;10274;49.022;9.338;2023-07-08T02:46:54;17.10;1.00
20231;DHT22;10274;49.022;9.338;2023-07-08T02:49:21;17.00;1.00
20231;DHT22;10274;49.022;9.338;2023-07-08T02:51:48;16.60;99.90
20231;DHT22;10274;49.022;9.338;2023-07-08T02:54:14;16.20;1.00
20231;DHT22;10274;49.022;9.338;2023-07-08T02:56:41;16.00;99.90
20231;DHT22;10274;49.022;9.338;2023-07-08T02:59:08;16.30;99.90
20231;DHT22;10274;49.022;9.338;2023-07-08T03:01:36;16.20;1.00
20231;DHT22;10274;49.022;9.338;2023-07-08T03:04:07;16.20;99.90
20231;DHT22;10274;49.022;9.338;2023-07-08T03:06:34;16.20;1.00
20231;DHT22;10274;49.022;9.338;2023-07-08T03:09:01;15.60;99.90
20231;DHT22;10274;49.022;9.338;2023-07-08T03:11:27;15.60;1.00
20231;DHT22;10274;49.022;9.338;2023-07-08T03:13:54;15.60;99.90
20231;DHT22;10274;49.022;9.338;2023-07-08T03:16:21;15.80;1.00
20231;DHT22;10274;49.022;9.338;2023-07-08T03:18:49;16.00;99.90
20231;DHT22;10274;49.022;9.338;2023-07-08T03:21:17;16.10;99.90
20231;DHT22;10274;49.022;9.338;2023-07-08T03:23:44;15.90;1.00
20231;DHT22;10274;49.022;9.338;2023-07-08T03:26:13;15.90;99.90
20231;DHT22;10274;49.022;9.338;2023-07-08T03:28:41;15.90;1.00
20231;DHT22;10274;49.022;9.338;2023-07-08T03:31:09;15.80;1.00
20231;DHT22;10274;49.022;9.338;2023-07-08T03:33:36;15.50;1.00
20231;DHT22;10274;49.022;9.338;2023-07-08T03:36:07;15.20;1.00
20231;DHT22;10274;49.022;9.338;2023-07-08T03:38:37;15.60;28.20
20231;DHT22;10274;49.022;9.338;2023-07-08T03:41:04;15.70;1.00
20231;DHT22;10274;49.022;9.338;2023-07-08T03:43:31;15.90;1.00
20231;DHT22;10274;49.022;9.338;2023-07-08T03:45:57;15.90;99.90
20231;DHT22;10274;49.022;9.338;2023-07-08T03:48:24;15.90;1.00
20231;DHT22;10274;49.022;9.338;2023-07-08T03:50:51;15.90;1.00
20231;DHT22;10274;49.022;9.338;2023-07-08T03:53:19;15.60;1.00
20231;DHT22;10274;49.022;9.338;2023-07-08T03:55:45;15.50;1.00
20231;DHT22;10274;49.022;9.338;2023-07-08T03:58:12;15.60;1.00
20231;DHT22;10274;49.022;9.338;2023-07-08T04:00:39;15.40;1.00
20231;DHT22;10274;49.022;9.338;2023-07-08T04:03:05;15.40;99.90
20231;DHT22;10274;49.022;9.338;2023-07-08T04:05:32;15.30;1.00
20231;DHT22;10274;49.022;9.338;2023-07-08T04:07:59;15.30;1.00
20231;DHT22;10274;49.022;9.338;2023-07-08T04:10:27;15.40;1.00
20231;DHT22;10274;49.022;9.338;2023-07-08T04:12:53;15.40;1.00
20231;DHT22;10274;49.022;9.338;2023-07-08T04:15:20;15.40;99.90
20231;DHT22;10274;49.022;9.338;2023-07-08T04:17:50;15.40;1.00
20231;DHT22;10274;49.022;9.338;2023-07-08T04:20:19;15.30;28.00
20231;DHT22;10274;49.022;9.338;2023-07-08T04:22:46;15.00;1.00
20231;DHT22;10274;49.022;9.338;2023-07-08T04:25:13;15.10;1.00
20231;DHT22;10274;49.022;9.338;2023-07-08T04:27:41;15.30;1.00
20231;DHT22;10274;49.022;9.338;2023-07-08T04:30:17;15.30;72.90
20231;DHT22;10274;49.022;9.338;2023-07-08T04:32:46;15.40;1.00
20231;DHT22;10274;49.022;9.338;2023-07-08T04:35:12;15.40;1.00
20231;DHT22;10274;49.022;9.338;2023-07-08T04:37:39;15.60;1.00
20231;DHT22;10274;49.022;9.338;2023-07-08T04:40:16;15.60;99.90
20231;DHT22;10274;49.022;9.338;2023-07-08T04:42:45;15.80;1.00
20231;DHT22;10274;49.022;9.338;2023-07-08T04:45:14;15.60;1.00
20231;DHT22;10274;49.022;9.338;2023-07-08T04:47:41;15.60;1.00
20231;DHT22;10274;49.022;9.338;2023-07-08T04:50:10;15.70;1.00
20231;DHT22;10274;49.022;9.338;2023-07-08T04:52:36;15.80;1.00
20231;DHT22;10274;49.022;9.338;2023-07-08T04:55:03;15.80;99.90
20231;DHT22;10274;49.022;9.338;2023-07-08T04:57:30;15.90;1.00
20231;DHT22;10274;49.022;9.338;2023-07-08T04:59:58;16.00;99.90
20231;DHT22;10274;49.022;9.338;2023-07-08T05:02:25;16.10;99.90
20231;DHT22;10274;49.022;9.338;2023-07-08T05:04:51;16.30;1.00
20231;DHT22;10274;49.022;9.338;2023-07-08T05:07:18;16.40;1.00
20231;DHT22;10274;49.022;9.338;2023-07-08T05:09:45;16.50;1.00
20231;DHT22;10274;49.022;9.338;2023-07-08T05:12:11;16.80;1.00
20231;DHT22;10274;49.022;9.338;2023-07-08T05:14:38;17.00;1.00
20231;DHT22;10274;49.022;9.338;2023-07-08T05:17:07;17.20;33.30
20231;DHT22;10274;49.022;9.338;2023-07-08T05:19:33;17.30;1.00
20231;DHT22;10274;49.022;9.338;2023-07-08T05:22:00;17.50;1.00
20231;DHT22;10274;49.022;9.338;2023-07-08T05:24:27;17.70;99.90
20231;DHT22;10274;49.022;9.338;2023-07-08T05:26:53;17.90;99.90
20231;DHT22;10274;49.022;9.338;2023-07-08T05:29:20;18.10;1.00
20231;DHT22;10274;49.022;9.338;2023-07-08T05:31:47;18.40;99.90
20231;DHT22;10274;49.022;9.338;2023-07-08T05:34:15;18.50;1.00
20231;DHT22;10274;49.022;9.338;2023-07-08T05:36:42;18.70;99.90
20231;DHT22;10274;49.022;9.338;2023-07-08T05:39:09;19.00;99.90
20231;DHT22;10274;49.022;9.338;2023-07-08T05:41:36;19.20;1.00
20231;DHT22;10274;49.022;9.338;2023-07-08T05:44:03;19.40;1.00
20231;DHT22;10274;49.022;9.338;2023-07-08T05:46:29;19.50;1.00
20231;DHT22;10274;49.022;9.338;2023-07-08T05:48:56;19.80;1.00
20231;DHT22;10274;49.022;9.338;2023-07-08T05:51:24;20.00;1.00
20231;DHT22;10274;49.022;9.338;2023-07-08T05:53:51;20.30;1.00
20231;DHT22;10274;49.022;9.338;2023-07-08T05:56:18;20.50;99.90
20231;DHT22;10274;49.022;9.338;2023-07-08T05:58:44;20.90;1.00
20231;DHT22;10274;49.022;9.338;2023-07-08T06:01:11;21.10;99.90
20231;DHT22;10274;49.022;9.338;2023-07-08T06:03:38;21.10;2.10
20231;DHT22;10274;49.022;9.338;2023-07-08T06:06:04;21.00;1.00
20231;DHT22;10274;49.022;9.338;2023-07-08T06:08:33;20.80;1.00
20231;DHT22;10274;49.022;9.338;2023-07-08T06:10:59;20.70;1.00
20231;DHT22;10274;49.022;9.338;2023-07-08T06:13:26;20.60;1.00
20231;DHT22;10274;49.022;9.338;2023-07-08T06:15:53;20.60;1.00
20231;DHT22;10274;49.022;9.338;2023-07-08T06:18:20;20.70;1.00
20231;DHT22;10274;49.022;9.338;2023-07-08T06:20:53;20.70;1.00
20231;DHT22;10274;49.022;9.338;2023-07-08T06:23:20;20.80;1.00
20231;DHT22;10274;49.022;9.338;2023-07-08T06:25:48;20.80;1.00
20231;DHT22;10274;49.022;9.338;2023-07-08T06:28:15;20.80;1.00
20231;DHT22;10274;49.022;9.338;2023-07-08T06:30:42;20.70;56.70
20231;DHT22;10274;49.022;9.338;2023-07-08T06:33:09;20.70;93.40
20231;DHT22;10274;49.022;9.338;2023-07-08T06:35:36;20.60;99.30
20231;DHT22;10274;49.022;9.338;2023-07-08T06:38:03;20.60;99.90
20231;DHT22;10274;49.022;9.338;2023-07-08T06:40:31;20.60;99.90
20231;DHT22;10274;49.022;9.338;2023-07-08T06:42:59;20.60;99.90
20231;DHT22;10274;49.022;9.338;2023-07-08T06:45:26;20.80;99.90
20231;DHT22;10274;49.022;9.338;2023-07-08T06:50:20;21.70;74.70
20231;DHT22;10274;49.022;9.338;2023-07-08T06:52:47;22.10;99.90
20231;DHT22;10274;49.022;9.338;2023-07-08T06:55:13;22.50;96.80
20231;DHT22;10274;49.022;9.338;2023-07-08T06:57:40;22.80;1.00
20231;DHT22;10274;49.022;9.338;2023-07-08T07:00:10;23.00;1.00
20231;DHT22;10274;49.022;9.338;2023-07-08T07:02:38;23.20;1.00
20231;DHT22;10274;49.022;9.338;2023-07-08T07:05:05;23.40;1.00
20231;DHT22;10274;49.022;9.338;2023-07-08T07:07:32;23.60;1.00
20231;DHT22;10274;49.022;9.338;2023-07-08T07:10:00;23.80;1.00
20231;DHT22;10274;49.022;9.338;2023-07-08T07:12:28;24.00;1.00
20231;DHT22;10274;49.022;9.338;2023-07-08T07:14:56;24.10;1.00
20231;DHT22;10274;49.022;9.338;2023-07-08T07:17:25;24.10;1.00
20231;DHT22;10274;49.022;9.338;2023-07-08T07:19:52;23.90;1.00
20231;DHT22;10274;49.022;9.338;2023-07-08T07:22:19;24.30;1.00
20231;DHT22;10274;49.022;9.338;2023-07-08T07:24:46;24.50;1.00
20231;DHT22;10274;49.022;9.338;2023-07-08T07:27:13;24.70;1.00
20231;DHT22;10274;49.022;9.338;2023-07-08T07:29:42;24.80;1.00
20231;DHT22;10274;49.022;9.338;2023-07-08T07:32:09;24.80;1.00
20231;DHT22;10274;49.022;9.338;2023-07-08T07:34:37;25.20;1.00
20231;DHT22;10274;49.022;9.338;2023-07-08T07:37:05;25.50;99.90
20231;DHT22;10274;49.022;9.338;2023-07-08T07:39:31;25.60;99.90
20231;DHT22;10274;49.022;9.338;2023-07-08T07:41:58;25.70;99.90
20231;DHT22;10274;49.022;9.338;2023-07-08T07:44:25;25.80;99.90
20231;DHT22;10274;49.022;9.338;2023-07-08T07:46:52;26.20;99.90
20231;DHT22;10274;49.022;9.338;2023-07-08T07:49:19;26.40;99.90
20231;DHT22;10274;49.022;9.338;2023-07-08T07:51:48;26.30;99.90
20231;DHT22;10274;49.022;9.338;2023-07-08T07:54:14;26.30;99.90
20231;DHT22;10274;49.022;9.338;2023-07-08T07:56:41;26.70;99.90
20231;DHT22;10274;49.022;9.338;2023-07-08T07:59:08;26.80;99.90
20231;DHT22;10274;49.022;9.338;2023-07-08T08:01:34;27.00;99.90
20231;DHT22;10274;49.022;9.338;2023-07-08T08:04:01;27.30;99.90
20231;DHT22;10274;49.022;9.338;2023-07-08T08:06:28;27.20;99.90
20231;DHT22;10274;49.022;9.338;2023-07-08T08:08:56;27.10;99.90
20231;DHT22;10274;49.022;9.338;2023-07-08T08:11:23;27.00;99.90
20231;DHT22;10274;49.022;9.338;2023-07-08T08:13:51;26.90;99.90
20231;DHT22;10274;49.022;9.338;2023-07-08T08:16:18;26.80;99.90
20231;DHT22;10274;49.022;9.338;2023-07-08T08:18:44;26.70;99.90
20231;DHT22;10274;49.022;9.338;2023-07-08T08:21:11;26.80;99.90
20231;DHT22;10274;49.022;9.338;2023-07-08T08:23:38;27.10;99.90
20231;DHT22;10274;49.022;9.338;2023-07-08T08:26:06;27.20;99.90
20231;DHT22;10274;49.022;9.338;2023-07-08T08:28:32;27.30;99.90
20231;DHT22;10274;49.022;9.338;2023-07-08T08:30:59;28.80;99.90
20231;DHT22;10274;49.022;9.338;2023-07-08T08:33:26;29.50;99.90
20231;DHT22;10274;49.022;9.338;2023-07-08T08:35:53;29.40;99.90
20231;DHT22;10274;49.022;9.338;2023-07-08T08:38:19;29.70;99.90
20231;DHT22;10274;49.022;9.338;2023-07-08T08:40:46;29.40;99.90
20231;DHT22;10274;49.022;9.338;2023-07-08T08:43:17;29.70;99.90
20231;DHT22;10274;49.022;9.338;2023-07-08T08:45:50;31.00;99.90
20231;DHT22;10274;49.022;9.338;2023-07-08T08:48:20;30.20;99.90
20231;DHT22;10274;49.022;9.338;2023-07-08T08:50:51;29.40;99.90
20231;DHT22;10274;49.022;9.338;2023-07-08T08:53:20;29.50;99.90
20231;DHT22;10274;49.022;9.338;2023-07-08T08:55:51;30.80;99.90
20231;DHT22;10274;49.022;9.338;2023-07-08T09:00:57;30.80;99.90
20231;DHT22;10274;49.022;9.338;2023-07-08T09:03:34;31.00;99.90
20231;DHT22;10274;49.022;9.338;2023-07-08T09:06:10;31.70;99.90
20231;DHT22;10274;49.022;9.338;2023-07-08T09:08:38;32.40;99.90
20231;DHT22;10274;49.022;9.338;2023-07-08T09:11:14;33.00;99.90
20231;DHT22;10274;49.022;9.338;2023-07-08T09:13:43;33.00;99.90
20231;DHT22;10274;49.022;9.338;2023-07-08T09:16:18;33.10;98.90
20231;DHT22;10274;49.022;9.338;2023-07-08T09:18:52;33.00;95.50
20231;DHT22;10274;49.022;9.338;2023-07-08T09:21:25;33.20;97.10
20231;DHT22;10274;49.022;9.338;2023-07-08T09:23:56;33.10;82.60
20231;DHT22;10274;49.022;9.338;2023-07-08T09:28:55;33.30;53.10
20231;DHT22;10274;49.022;9.338;2023-07-08T09:31:24;34.30;81.80
20231;DHT22;10274;49.022;9.338;2023-07-08T09:33:52;33.20;57.80
20231;DHT22;10274;49.022;9.338;2023-07-08T09:38:50;33.80;33.90
20231;DHT22;10274;49.022;9.338;2023-07-08T09:41:32;34.40;49.40
20231;DHT22;10274;49.022;9.338;2023-07-08T09:44:14;34.00;51.00
20231;DHT22;10274;49.022;9.338;2023-07-08T09:46:41;32.90;50.80
20231;DHT22;10274;49.022;9.338;2023-07-08T09:49:14;32.20;38.20
20231;DHT22;10274;49.022;9.338;2023-07-08T09:51:42;33.40;44.50
20231;DHT22;10274;49.022;9.338;2023-07-08T09:54:08;33.50;28.90
20231;DHT22;10274;49.022;9.338;2023-07-08T09:56:40;33.70;30.90
20231;DHT22;10274;49.022;9.338;2023-07-08T09:59:12;33.50;23.80
20231;DHT22;10274;49.022;9.338;2023-07-08T10:01:40;33.20;26.60
20231;DHT22;10274;49.022;9.338;2023-07-08T10:04:07;34.00;28.90
20231;DHT22;10274;49.022;9.338;2023-07-08T10:06:35;34.10;20.90
20231;DHT22;10274;49.022;9.338;2023-07-08T10:09:04;34.80;27.70
20231;DHT22;10274;49.022;9.338;2023-07-08T10:11:35;35.00;24.80
20231;DHT22;10274;49.022;9.338;2023-07-08T10:14:07;35.20;22.30
20231;DHT22;10274;49.022;9.338;2023-07-08T10:16:37;35.40;19.90
20231;DHT22;10274;49.022;9.338;2023-07-08T10:19:12;35.00;15.10
20231;DHT22;10274;49.022;9.338;2023-07-08T10:21:44;34.70;10.10
20231;DHT22;10274;49.022;9.338;2023-07-08T10:24:23;34.00;3.40
20231;DHT22;10274;49.022;9.338;2023-07-08T10:29:36;35.10;1.00
20231;DHT22;10274;49.022;9.338;2023-07-08T10:32:14;35.00;4.50
20231;DHT22;10274;49.022;9.338;2023-07-08T10:34:48;35.40;1.70
20231;DHT22;10274;49.022;9.338;2023-07-08T10:37:23;35.90;2.90
20231;DHT22;10274;49.022;9.338;2023-07-08T10:39:59;35.40;1.00
20231;DHT22;10274;49.022;9.338;2023-07-08T10:42:42;35.60;1.00
20231;DHT22;10274;49.022;9.338;2023-07-08T10:45:12;36.30;2.00
20231;DHT22;10274;49.022;9.338;2023-07-08T10:47:56;36.50;1.00
20231;DHT22;10274;49.022;9.338;2023-07-08T10:50:39;36.30;1.00
20231;DHT22;10274;49.022;9.338;2023-07-08T10:53:21;35.60;1.00
20231;DHT22;10274;49.022;9.338;2023-07-08T10:55:57;36.10;1.00
20231;DHT22;10274;49.022;9.338;2023-07-08T10:58:39;35.00;1.00
20231;DHT22;10274;49.022;9.338;2023-07-08T11:01:15;34.80;1.00
20231;DHT22;10274;49.022;9.338;2023-07-08T11:04:07;34.90;1.00
20231;DHT22;10274;49.022;9.338;2023-07-08T11:06:45;36.00;1.00
20231;DHT22;10274;49.022;9.338;2023-07-08T11:09:17;34.90;1.00
20231;DHT22;10274;49.022;9.338;2023-07-08T11:11:50;34.60;1.00
20231;DHT22;10274;49.022;9.338;2023-07-08T11:14:21;35.40;1.00
20231;DHT22;10274;49.022;9.338;2023-07-08T11:16:52;36.10;1.00
20231;DHT22;10274;49.022;9.338;2023-07-08T11:19:25;36.20;1.00
20231;DHT22;10274;49.022;9.338;2023-07-08T11:21:55;36.70;1.00
20231;DHT22;10274;49.022;9.338;2023-07-08T11:24:28;35.50;1.00
20231;DHT22;10274;49.022;9.338;2023-07-08T11:27:00;34.80;1.00
20231;DHT22;10274;49.022;9.338;2023-07-08T11:29:35;35.80;1.00
20231;DHT22;10274;49.022;9.338;2023-07-08T11:32:04;36.50;1.00
20231;DHT22;10274;49.022;9.338;2023-07-08T11:34:34;36.70;1.00
20231;DHT22;10274;49.022;9.338;2023-07-08T11:37:02;36.60;1.00
20231;DHT22;10274;49.022;9.338;2023-07-08T11:39:38;35.50;1.00
20231;DHT22;10274;49.022;9.338;2023-07-08T11:42:14;35.00;1.00
20231;DHT22;10274;49.022;9.338;2023-07-08T11:44:42;35.60;1.00
20231;DHT22;10274;49.022;9.338;2023-07-08T11:47:15;35.70;1.00
20231;DHT22;10274;49.022;9.338;2023-07-08T11:49:46;35.60;1.00
20231;DHT22;10274;49.022;9.338;2023-07-08T11:52:16;35.40;1.00
20231;DHT22;10274;49.022;9.338;2023-07-08T11:54:46;36.20;1.00
20231;DHT22;10274;49.022;9.338;2023-07-08T11:57:17;35.30;1.00
20231;DHT22;10274;49.022;9.338;2023-07-08T11:59:46;34.90;1.00
20231;DHT22;10274;49.022;9.338;2023-07-08T12:02:15;35.00;1.00
20231;DHT22;10274;49.022;9.338;2023-07-08T12:04:56;35.10;1.00
20231;DHT22;10274;49.022;9.338;2023-07-08T12:07:31;35.00;1.00
20231;DHT22;10274;49.022;9.338;2023-07-08T12:10:02;34.40;1.00
20231;DHT22;10274;49.022;9.338;2023-07-08T12:12:33;34.50;1.00
20231;DHT22;10274;49.022;9.338;2023-07-08T12:15:09;34.60;1.00
20231;DHT22;10274;49.022;9.338;2023-07-08T12:17:38;34.40;1.00
20231;DHT22;10274;49.022;9.338;2023-07-08T12:20:17;34.00;1.00
20231;DHT22;10274;49.022;9.338;2023-07-08T12:22:44;34.00;1.00
20231;DHT22;10274;49.022;9.338;2023-07-08T12:25:13;33.80;1.00
20231;DHT22;10274;49.022;9.338;2023-07-08T12:27:41;34.00;1.00
20231;DHT22;10274;49.022;9.338;2023-07-08T12:30:09;34.00;1.00
20231;DHT22;10274;49.022;9.338;2023-07-08T12:32:37;34.10;1.00
20231;DHT22;10274;49.022;9.338;2023-07-08T12:35:04;34.20;1.00
20231;DHT22;10274;49.022;9.338;2023-07-08T12:37:32;34.10;1.00
20231;DHT22;10274;49.022;9.338;2023-07-08T12:39:59;34.00;1.00
20231;DHT22;10274;49.022;9.338;2023-07-08T12:42:31;34.30;1.00
20231;DHT22;10274;49.022;9.338;2023-07-08T12:44:58;34.80;1.00
20231;DHT22;10274;49.022;9.338;2023-07-08T12:47:25;34.30;1.00
20231;DHT22;10274;49.022;9.338;2023-07-08T12:49:51;34.00;1.00
20231;DHT22;10274;49.022;9.338;2023-07-08T12:52:20;34.20;1.00
20231;DHT22;10274;49.022;9.338;2023-07-08T12:54:49;34.00;1.00
20231;DHT22;10274;49.022;9.338;2023-07-08T12:57:16;33.60;1.00
20231;DHT22;10274;49.022;9.338;2023-07-08T12:59:44;34.00;1.00
20231;DHT22;10274;49.022;9.338;2023-07-08T13:02:15;34.30;1.00
20231;DHT22;10274;49.022;9.338;2023-07-08T13:04:44;34.40;1.00
20231;DHT22;10274;49.022;9.338;2023-07-08T13:07:33;33.90;1.00
20231;DHT22;10274;49.022;9.338;2023-07-08T13:10:03;33.40;1.00
20231;DHT22;10274;49.022;9.338;2023-07-08T13:12:31;33.70;1.00
20231;DHT22;10274;49.022;9.338;2023-07-08T13:15:00;33.90;1.00
20231;DHT22;10274;49.022;9.338;2023-07-08T13:17:28;34.00;1.00
20231;DHT22;10274;49.022;9.338;2023-07-08T13:19:55;34.20;1.00
20231;DHT22;10274;49.022;9.338;2023-07-08T13:22:23;34.30;1.00
20231;DHT22;10274;49.022;9.338;2023-07-08T13:24:59;34.20;1.00
20231;DHT22;10274;49.022;9.338;2023-07-08T13:27:27;34.10;1.00
20231;DHT22;10274;49.022;9.338;2023-07-08T13:29:54;34.00;1.00
20231;DHT22;10274;49.022;9.338;2023-07-08T13:32:29;33.80;1.00
20231;DHT22;10274;49.022;9.338;2023-07-08T13:34:57;33.80;1.00
20231;DHT22;10274;49.022;9.338;2023-07-08T13:37:23;33.80;1.00
20231;DHT22;10274;49.022;9.338;2023-07-08T13:39:53;33.60;1.00
20231;DHT22;10274;49.022;9.338;2023-07-08T13:42:20;33.30;1.00
20231;DHT22;10274;49.022;9.338;2023-07-08T13:44:49;33.60;1.00
20231;DHT22;10274;49.022;9.338;2023-07-08T13:47:21;33.70;1.00
20231;DHT22;10274;49.022;9.338;2023-07-08T13:49:52;33.90;1.00
20231;DHT22;10274;49.022;9.338;2023-07-08T13:52:22;33.80;1.00
20231;DHT22;10274;49.022;9.338;2023-07-08T13:54:50;33.60;1.00
20231;DHT22;10274;49.022;9.338;2023-07-08T13:57:20;33.40;1.00
20231;DHT22;10274;49.022;9.338;2023-07-08T13:59:49;33.30;1.00
20231;DHT22;10274;49.022;9.338;2023-07-08T14:02:17;33.30;1.00
20231;DHT22;10274;49.022;9.338;2023-07-08T14:04:45;33.70;1.00
20231;DHT22;10274;49.022;9.338;2023-07-08T14:07:16;33.70;1.00
20231;DHT22;10274;49.022;9.338;2023-07-08T14:09:43;33.50;1.00
20231;DHT22;10274;49.022;9.338;2023-07-08T14:12:10;33.20;1.00
20231;DHT22;10274;49.022;9.338;2023-07-08T14:14:36;33.40;1.00
20231;DHT22;10274;49.022;9.338;2023-07-08T14:17:07;33.80;1.00
20231;DHT22;10274;49.022;9.338;2023-07-08T14:19:34;33.90;1.00
20231;DHT22;10274;49.022;9.338;2023-07-08T14:22:05;33.80;1.00
20231;DHT22;10274;49.022;9.338;2023-07-08T14:24:32;33.70;1.00
20231;DHT22;10274;49.022;9.338;2023-07-08T14:26:59;33.50;1.00
20231;DHT22;10274;49.022;9.338;2023-07-08T14:29:25;33.30;1.00
20231;DHT22;10274;49.022;9.338;2023-07-08T14:31:52;33.40;1.00
20231;DHT22;10274;49.022;9.338;2023-07-08T14:34:23;33.60;1.00
20231;DHT22;10274;49.022;9.338;2023-07-08T14:36:51;33.60;1.00
20231;DHT22;10274;49.022;9.338;2023-07-08T14:39:18;33.40;1.00
20231;DHT22;10274;49.022;9.338;2023-07-08T14:41:49;33.50;1.00
20231;DHT22;10274;49.022;9.338;2023-07-08T14:44:24;33.50;1.00
20231;DHT22;10274;49.022;9.338;2023-07-08T14:46:51;33.20;1.00
20231;DHT22;10274;49.022;9.338;2023-07-08T14:49:21;33.30;1.00
20231;DHT22;10274;49.022;9.338;2023-07-08T14:51:48;33.30;1.00
20231;DHT22;10274;49.022;9.338;2023-07-08T14:54:17;33.00;1.00
20231;DHT22;10274;49.022;9.338;2023-07-08T14:56:44;33.30;1.00
20231;DHT22;10274;49.022;9.338;2023-07-08T14:59:14;33.20;1.00
20231;DHT22;10274;49.022;9.338;2023-07-08T15:01:43;32.90;1.00
20231;DHT22;10274;49.022;9.338;2023-07-08T15:04:11;33.00;1.00
20231;DHT22;10274;49.022;9.338;2023-07-08T15:06:41;32.90;1.00
20231;DHT22;10274;49.022;9.338;2023-07-08T15:09:07;32.90;1.00
20231;DHT22;10274;49.022;9.338;2023-07-08T15:11:36;32.70;1.00
20231;DHT22;10274;49.022;9.338;2023-07-08T15:14:05;32.40;1.00
20231;DHT22;10274;49.022;9.338;2023-07-08T15:16:32;32.40;1.00
20231;DHT22;10274;49.022;9.338;2023-07-08T15:18:59;31.90;1.00
20231;DHT22;10274;49.022;9.338;2023-07-08T15:21:26;31.70;1.00
20231;DHT22;10274;49.022;9.338;2023-07-08T15:23:54;31.40;1.00
20231;DHT22;10274;49.022;9.338;2023-07-08T15:26:21;31.30;1.00
20231;DHT22;10274;49.022;9.338;2023-07-08T15:28:50;31.20;1.00
20231;DHT22;10274;49.022;9.338;2023-07-08T15:31:18;31.10;1.00
20231;DHT22;10274;49.022;9.338;2023-07-08T15:33:49;31.40;1.00
20231;DHT22;10274;49.022;9.338;2023-07-08T15:36:16;31.80;1.00
20231;DHT22;10274;49.022;9.338;2023-07-08T15:38:43;32.00;1.00
20231;DHT22;10274;49.022;9.338;2023-07-08T15:41:20;32.20;1.00
20231;DHT22;10274;49.022;9.338;2023-07-08T15:43:48;32.30;1.00
20231;DHT22;10274;49.022;9.338;2023-07-08T15:46:15;32.40;1.00
20231;DHT22;10274;49.022;9.338;2023-07-08T15:48:42;32.50;1.00
20231;DHT22;10274;49.022;9.338;2023-07-08T15:51:13;32.40;1.00
20231;DHT22;10274;49.022;9.338;2023-07-08T15:53:39;32.50;1.00
20231;DHT22;10274;49.022;9.338;2023-07-08T15:56:08;32.40;1.00
20231;DHT22;10274;49.022;9.338;2023-07-08T15:58:38;32.40;1.00
20231;DHT22;10274;49.022;9.338;2023-07-08T16:01:05;32.30;1.00
20231;DHT22;10274;49.022;9.338;2023-07-08T16:03:36;32.20;1.00
20231;DHT22;10274;49.022;9.338;2023-07-08T16:06:03;32.20;1.00